sensor_id;sensor_type;location;lat;lon;timestamp;P1;durP1;ratioP1;P2;durP2;ratioP2
29330;SDS011;16331;52.528;13.342;2023-07-29T00:02:24;15.95;;;9.88;;
29330;SDS011;16331;52.528;13.342;2023-07-29T00:04:54;67.40;;;33.08;;
29330;SDS011;16331;52.528;13.342;2023-07-29T00:07:35;73.68;;;36.95;;
29330;SDS011;16331;52.528;13.342;2023-07-29T00:10:05;18.90;;;10.55;;
29330;SDS011;16331;52.528;13.342;2023-07-29T00:12:34;16.05;;;8.77;;
29330;SDS011;16331;52.528;13.342;2023-07-29T00:15:11;18.55;;;9.73;;
29330;SDS011;16331;52.528;13.342;2023-07-29T00:17:47;14.75;;;8.82;;
29330;SDS011;16331;52.528;13.342;2023-07-29T00:20:34;13.50;;;8.13;;
29330;SDS011;16331;52.528;13.342;2023-07-29T00:23:02;14.75;;;7.82;;
29330;SDS011;16331;52.528;13.342;2023-07-29T00:25:41;21.50;;;10.15;;
29330;SDS011;16331;52.528;13.342;2023-07-29T00:28:27;14.38;;;7.75;;
29330;SDS011;16331;52.528;13.342;2023-07-29T00:30:53;19.60;;;10.35;;
29330;SDS011;16331;52.528;13.342;2023-07-29T00:33:24;14.65;;;8.27;;
29330;SDS011;16331;52.528;13.342;2023-07-29T00:35:56;20.63;;;10.30;;
29330;SDS011;16331;52.528;13.342;2023-07-29T00:38:37;13.43;;;8.73;;
29330;SDS011;16331;52.528;13.342;2023-07-29T00:41:03;20.13;;;9.57;;
29330;SDS011;16331;52.528;13.342;2023-07-29T00:43:53;18.60;;;9.32;;
29330;SDS011;16331;52.528;13.342;2023-07-29T00:46:24;15.57;;;9.00;;
29330;SDS011;16331;52.528;13.342;2023-07-29T00:48:52;18.75;;;11.00;;
29330;SDS011;16331;52.528;13.342;2023-07-29T00:51:41;23.13;;;10.68;;
29330;SDS011;16331;52.528;13.342;2023-07-29T00:54:39;22.02;;;12.90;;
29330;SDS011;16331;52.528;13.342;2023-07-29T00:57:55;20.80;;;8.93;;
29330;SDS011;16331;52.528;13.342;2023-07-29T01:00:43;13.65;;;8.18;;
29330;SDS011;16331;52.528;13.342;2023-07-29T01:03:32;14.82;;;8.20;;
29330;SDS011;16331;52.528;13.342;2023-07-29T01:06:08;14.07;;;8.45;;
29330;SDS011;16331;52.528;13.342;2023-07-29T01:09:31;15.07;;;9.48;;
29330;SDS011;16331;52.528;13.342;2023-07-29T01:13:00;15.27;;;8.45;;
29330;SDS011;16331;52.528;13.342;2023-07-29T01:22:30;16.33;;;10.00;;
29330;SDS011;16331;52.528;13.342;2023-07-29T01:25:08;16.85;;;9.18;;
29330;SDS011;16331;52.528;13.342;2023-07-29T01:27:43;16.58;;;10.05;;
29330;SDS011;16331;52.528;13.342;2023-07-29T01:30:42;16.70;;;9.30;;
29330;SDS011;16331;52.528;13.342;2023-07-29T01:34:11;19.08;;;10.25;;
29330;SDS011;16331;52.528;13.342;2023-07-29T01:37:14;19.80;;;11.30;;
29330;SDS011;16331;52.528;13.342;2023-07-29T01:39:56;21.20;;;10.80;;
29330;SDS011;16331;52.528;13.342;2023-07-29T01:42:28;18.25;;;9.73;;
29330;SDS011;16331;52.528;13.342;2023-07-29T01:44:59;19.27;;;9.65;;
29330;SDS011;16331;52.528;13.342;2023-07-29T01:47:25;17.83;;;10.38;;
29330;SDS011;16331;52.528;13.342;2023-07-29T01:49:53;16.92;;;10.25;;
29330;SDS011;16331;52.528;13.342;2023-07-29T01:52:20;19.50;;;10.40;;
29330;SDS011;16331;52.528;13.342;2023-07-29T01:55:00;16.35;;;9.82;;
29330;SDS011;16331;52.528;13.342;2023-07-29T01:57:32;17.73;;;9.10;;
29330;SDS011;16331;52.528;13.342;2023-07-29T02:00:12;17.48;;;10.23;;
29330;SDS011;16331;52.528;13.342;2023-07-29T02:03:01;20.75;;;11.07;;
29330;SDS011;16331;52.528;13.342;2023-07-29T02:05:48;18.58;;;10.70;;
29330;SDS011;16331;52.528;13.342;2023-07-29T02:08:15;23.85;;;11.15;;
29330;SDS011;16331;52.528;13.342;2023-07-29T02:10:51;21.05;;;10.60;;
29330;SDS011;16331;52.528;13.342;2023-07-29T02:13:33;25.20;;;12.48;;
29330;SDS011;16331;52.528;13.342;2023-07-29T02:16:05;15.73;;;10.10;;
29330;SDS011;16331;52.528;13.342;2023-07-29T02:18:38;22.13;;;12.18;;
29330;SDS011;16331;52.528;13.342;2023-07-29T02:21:05;18.65;;;10.48;;
29330;SDS011;16331;52.528;13.342;2023-07-29T02:23:31;18.10;;;10.45;;
29330;SDS011;16331;52.528;13.342;2023-07-29T02:25:58;19.65;;;9.50;;
29330;SDS011;16331;52.528;13.342;2023-07-29T02:28:28;17.65;;;9.52;;
29330;SDS011;16331;52.528;13.342;2023-07-29T02:33:59;18.60;;;9.77;;
29330;SDS011;16331;52.528;13.342;2023-07-29T02:36:27;15.00;;;9.10;;
29330;SDS011;16331;52.528;13.342;2023-07-29T02:38:54;17.88;;;10.20;;
29330;SDS011;16331;52.528;13.342;2023-07-29T02:41:41;22.17;;;10.55;;
29330;SDS011;16331;52.528;13.342;2023-07-29T02:44:11;25.33;;;11.50;;
29330;SDS011;16331;52.528;13.342;2023-07-29T02:46:38;20.30;;;10.15;;
29330;SDS011;16331;52.528;13.342;2023-07-29T02:49:04;22.88;;;10.40;;
29330;SDS011;16331;52.528;13.342;2023-07-29T02:51:30;17.90;;;9.68;;
29330;SDS011;16331;52.528;13.342;2023-07-29T02:53:58;17.85;;;9.80;;
29330;SDS011;16331;52.528;13.342;2023-07-29T02:56:27;18.90;;;10.80;;
29330;SDS011;16331;52.528;13.342;2023-07-29T02:59:00;21.08;;;10.20;;
29330;SDS011;16331;52.528;13.342;2023-07-29T03:01:53;26.55;;;10.98;;
29330;SDS011;16331;52.528;13.342;2023-07-29T03:04:30;18.42;;;10.55;;
29330;SDS011;16331;52.528;13.342;2023-07-29T03:06:59;22.38;;;10.63;;
29330;SDS011;16331;52.528;13.342;2023-07-29T03:09:28;16.88;;;10.48;;
29330;SDS011;16331;52.528;13.342;2023-07-29T03:12:04;23.60;;;11.32;;
29330;SDS011;16331;52.528;13.342;2023-07-29T03:14:40;17.90;;;10.63;;
29330;SDS011;16331;52.528;13.342;2023-07-29T03:17:13;19.73;;;11.07;;
29330;SDS011;16331;52.528;13.342;2023-07-29T03:19:44;17.63;;;10.63;;
29330;SDS011;16331;52.528;13.342;2023-07-29T03:22:12;20.10;;;11.65;;
29330;SDS011;16331;52.528;13.342;2023-07-29T03:24:50;18.40;;;10.32;;
29330;SDS011;16331;52.528;13.342;2023-07-29T03:27:21;18.05;;;10.88;;
29330;SDS011;16331;52.528;13.342;2023-07-29T03:29:53;18.90;;;11.15;;
29330;SDS011;16331;52.528;13.342;2023-07-29T03:32:29;19.52;;;11.30;;
29330;SDS011;16331;52.528;13.342;2023-07-29T03:35:02;19.40;;;10.18;;
29330;SDS011;16331;52.528;13.342;2023-07-29T03:37:53;17.92;;;10.77;;
29330;SDS011;16331;52.528;13.342;2023-07-29T03:40:24;18.42;;;11.00;;
29330;SDS011;16331;52.528;13.342;2023-07-29T03:42:50;18.92;;;10.88;;
29330;SDS011;16331;52.528;13.342;2023-07-29T03:45:19;22.27;;;12.10;;
29330;SDS011;16331;52.528;13.342;2023-07-29T03:48:01;19.83;;;11.48;;
29330;SDS011;16331;52.528;13.342;2023-07-29T03:50:34;22.02;;;11.13;;
29330;SDS011;16331;52.528;13.342;2023-07-29T03:53:04;26.38;;;11.48;;
29330;SDS011;16331;52.528;13.342;2023-07-29T03:55:35;23.73;;;11.98;;
29330;SDS011;16331;52.528;13.342;2023-07-29T03:58:12;22.33;;;11.15;;
29330;SDS011;16331;52.528;13.342;2023-07-29T04:00:43;19.80;;;11.60;;
29330;SDS011;16331;52.528;13.342;2023-07-29T04:03:42;18.90;;;10.98;;
29330;SDS011;16331;52.528;13.342;2023-07-29T04:06:14;19.00;;;11.07;;
29330;SDS011;16331;52.528;13.342;2023-07-29T04:08:50;22.42;;;11.40;;
29330;SDS011;16331;52.528;13.342;2023-07-29T04:11:37;20.73;;;12.07;;
29330;SDS011;16331;52.528;13.342;2023-07-29T04:14:04;19.48;;;11.77;;
29330;SDS011;16331;52.528;13.342;2023-07-29T04:16:41;18.77;;;10.98;;
29330;SDS011;16331;52.528;13.342;2023-07-29T04:19:25;20.35;;;11.10;;
29330;SDS011;16331;52.528;13.342;2023-07-29T04:21:54;20.58;;;11.00;;
29330;SDS011;16331;52.528;13.342;2023-07-29T04:24:25;20.83;;;11.55;;
29330;SDS011;16331;52.528;13.342;2023-07-29T04:26:56;18.42;;;11.65;;
29330;SDS011;16331;52.528;13.342;2023-07-29T04:29:26;17.60;;;10.52;;
29330;SDS011;16331;52.528;13.342;2023-07-29T04:31:53;19.13;;;11.68;;
29330;SDS011;16331;52.528;13.342;2023-07-29T04:34:30;17.73;;;11.07;;
29330;SDS011;16331;52.528;13.342;2023-07-29T04:37:00;17.45;;;10.52;;
29330;SDS011;16331;52.528;13.342;2023-07-29T04:39:28;20.27;;;9.68;;
29330;SDS011;16331;52.528;13.342;2023-07-29T04:41:56;15.88;;;10.23;;
29330;SDS011;16331;52.528;13.342;2023-07-29T04:44:22;14.88;;;9.50;;
29330;SDS011;16331;52.528;13.342;2023-07-29T04:46:48;14.00;;;8.93;;
29330;SDS011;16331;52.528;13.342;2023-07-29T04:49:16;18.88;;;9.57;;
29330;SDS011;16331;52.528;13.342;2023-07-29T04:51:43;14.20;;;9.10;;
29330;SDS011;16331;52.528;13.342;2023-07-29T04:54:11;16.13;;;8.60;;
29330;SDS011;16331;52.528;13.342;2023-07-29T04:56:39;14.85;;;7.70;;
29330;SDS011;16331;52.528;13.342;2023-07-29T04:59:07;15.77;;;8.05;;
29330;SDS011;16331;52.528;13.342;2023-07-29T05:01:34;9.77;;;7.80;;
29330;SDS011;16331;52.528;13.342;2023-07-29T05:04:20;14.82;;;9.05;;
29330;SDS011;16331;52.528;13.342;2023-07-29T05:06:46;11.32;;;6.35;;
29330;SDS011;16331;52.528;13.342;2023-07-29T05:09:37;10.75;;;6.70;;
29330;SDS011;16331;52.528;13.342;2023-07-29T05:15:38;11.50;;;6.40;;
29330;SDS011;16331;52.528;13.342;2023-07-29T05:21:36;9.60;;;6.40;;
29330;SDS011;16331;52.528;13.342;2023-07-29T05:24:22;10.82;;;6.40;;
29330;SDS011;16331;52.528;13.342;2023-07-29T05:27:02;10.13;;;6.43;;
29330;SDS011;16331;52.528;13.342;2023-07-29T05:30:39;7.63;;;5.55;;
29330;SDS011;16331;52.528;13.342;2023-07-29T05:33:26;9.15;;;6.07;;
29330;SDS011;16331;52.528;13.342;2023-07-29T05:39:15;9.73;;;5.07;;
29330;SDS011;16331;52.528;13.342;2023-07-29T05:42:01;7.55;;;5.55;;
29330;SDS011;16331;52.528;13.342;2023-07-29T05:44:34;11.20;;;6.30;;
29330;SDS011;16331;52.528;13.342;2023-07-29T05:47:04;11.52;;;6.72;;
29330;SDS011;16331;52.528;13.342;2023-07-29T05:49:59;8.15;;;5.75;;
29330;SDS011;16331;52.528;13.342;2023-07-29T05:52:45;14.15;;;6.05;;
29330;SDS011;16331;52.528;13.342;2023-07-29T05:55:34;8.60;;;5.30;;
29330;SDS011;16331;52.528;13.342;2023-07-29T05:58:00;7.68;;;5.60;;
29330;SDS011;16331;52.528;13.342;2023-07-29T06:01:00;8.25;;;5.80;;
29330;SDS011;16331;52.528;13.342;2023-07-29T06:03:28;8.40;;;5.03;;
29330;SDS011;16331;52.528;13.342;2023-07-29T06:05:54;9.73;;;5.93;;
29330;SDS011;16331;52.528;13.342;2023-07-29T06:08:20;9.27;;;4.95;;
29330;SDS011;16331;52.528;13.342;2023-07-29T06:10:46;6.75;;;5.07;;
29330;SDS011;16331;52.528;13.342;2023-07-29T06:13:12;7.78;;;5.35;;
29330;SDS011;16331;52.528;13.342;2023-07-29T06:15:39;6.00;;;4.28;;
29330;SDS011;16331;52.528;13.342;2023-07-29T06:18:09;6.72;;;4.88;;
29330;SDS011;16331;52.528;13.342;2023-07-29T06:20:37;8.30;;;4.72;;
29330;SDS011;16331;52.528;13.342;2023-07-29T06:23:04;7.68;;;4.82;;
29330;SDS011;16331;52.528;13.342;2023-07-29T06:25:34;7.28;;;4.93;;
29330;SDS011;16331;52.528;13.342;2023-07-29T06:28:06;6.20;;;4.03;;
29330;SDS011;16331;52.528;13.342;2023-07-29T06:30:32;6.65;;;4.43;;
29330;SDS011;16331;52.528;13.342;2023-07-29T06:32:59;9.70;;;4.97;;
29330;SDS011;16331;52.528;13.342;2023-07-29T06:35:26;6.10;;;4.20;;
29330;SDS011;16331;52.528;13.342;2023-07-29T06:37:55;9.82;;;4.30;;
29330;SDS011;16331;52.528;13.342;2023-07-29T06:40:21;7.30;;;4.38;;
29330;SDS011;16331;52.528;13.342;2023-07-29T06:42:48;7.78;;;3.70;;
29330;SDS011;16331;52.528;13.342;2023-07-29T06:45:17;4.78;;;3.60;;
29330;SDS011;16331;52.528;13.342;2023-07-29T06:48:03;6.75;;;4.07;;
29330;SDS011;16331;52.528;13.342;2023-07-29T06:50:31;5.82;;;3.70;;
29330;SDS011;16331;52.528;13.342;2023-07-29T06:52:59;5.97;;;4.00;;
29330;SDS011;16331;52.528;13.342;2023-07-29T06:55:29;6.85;;;3.78;;
29330;SDS011;16331;52.528;13.342;2023-07-29T06:57:55;6.93;;;3.80;;
29330;SDS011;16331;52.528;13.342;2023-07-29T07:00:26;4.35;;;3.35;;
29330;SDS011;16331;52.528;13.342;2023-07-29T07:02:58;7.63;;;3.72;;
29330;SDS011;16331;52.528;13.342;2023-07-29T07:05:26;6.90;;;4.05;;
29330;SDS011;16331;52.528;13.342;2023-07-29T07:07:53;5.07;;;3.53;;
29330;SDS011;16331;52.528;13.342;2023-07-29T07:10:19;4.78;;;3.47;;
29330;SDS011;16331;52.528;13.342;2023-07-29T07:12:51;6.50;;;3.50;;
29330;SDS011;16331;52.528;13.342;2023-07-29T07:15:20;4.43;;;3.60;;
29330;SDS011;16331;52.528;13.342;2023-07-29T07:17:46;5.80;;;3.42;;
29330;SDS011;16331;52.528;13.342;2023-07-29T07:20:15;5.53;;;3.70;;
29330;SDS011;16331;52.528;13.342;2023-07-29T07:22:49;6.97;;;4.38;;
29330;SDS011;16331;52.528;13.342;2023-07-29T07:25:30;6.60;;;4.93;;
29330;SDS011;16331;52.528;13.342;2023-07-29T07:27:57;7.05;;;4.95;;
29330;SDS011;16331;52.528;13.342;2023-07-29T07:30:23;7.53;;;4.75;;
29330;SDS011;16331;52.528;13.342;2023-07-29T07:32:52;8.35;;;4.20;;
29330;SDS011;16331;52.528;13.342;2023-07-29T07:35:19;6.22;;;4.57;;
29330;SDS011;16331;52.528;13.342;2023-07-29T07:37:48;5.90;;;4.30;;
29330;SDS011;16331;52.528;13.342;2023-07-29T07:40:20;7.53;;;4.30;;
29330;SDS011;16331;52.528;13.342;2023-07-29T07:45:16;5.82;;;4.60;;
29330;SDS011;16331;52.528;13.342;2023-07-29T07:47:43;7.85;;;5.47;;
29330;SDS011;16331;52.528;13.342;2023-07-29T07:50:16;9.35;;;4.80;;
29330;SDS011;16331;52.528;13.342;2023-07-29T07:52:42;5.50;;;4.43;;
29330;SDS011;16331;52.528;13.342;2023-07-29T07:55:12;4.13;;;3.63;;
29330;SDS011;16331;52.528;13.342;2023-07-29T07:57:39;6.03;;;3.78;;
29330;SDS011;16331;52.528;13.342;2023-07-29T08:00:09;4.63;;;3.60;;
29330;SDS011;16331;52.528;13.342;2023-07-29T08:02:36;4.07;;;3.05;;
29330;SDS011;16331;52.528;13.342;2023-07-29T08:05:02;6.13;;;3.63;;
29330;SDS011;16331;52.528;13.342;2023-07-29T08:07:36;5.53;;;3.50;;
29330;SDS011;16331;52.528;13.342;2023-07-29T08:10:06;3.97;;;3.30;;
29330;SDS011;16331;52.528;13.342;2023-07-29T08:12:35;5.85;;;3.10;;
29330;SDS011;16331;52.528;13.342;2023-07-29T08:15:02;3.83;;;3.08;;
29330;SDS011;16331;52.528;13.342;2023-07-29T08:17:30;3.90;;;2.90;;
29330;SDS011;16331;52.528;13.342;2023-07-29T08:19:57;3.25;;;2.20;;
29330;SDS011;16331;52.528;13.342;2023-07-29T08:22:23;3.42;;;2.72;;
29330;SDS011;16331;52.528;13.342;2023-07-29T08:24:50;6.47;;;3.25;;
29330;SDS011;16331;52.528;13.342;2023-07-29T08:27:17;4.30;;;2.90;;
29330;SDS011;16331;52.528;13.342;2023-07-29T08:29:44;4.07;;;2.78;;
29330;SDS011;16331;52.528;13.342;2023-07-29T08:32:12;4.43;;;3.03;;
29330;SDS011;16331;52.528;13.342;2023-07-29T08:34:48;4.13;;;2.90;;
29330;SDS011;16331;52.528;13.342;2023-07-29T08:37:16;4.97;;;2.80;;
29330;SDS011;16331;52.528;13.342;2023-07-29T08:39:42;4.05;;;2.97;;
29330;SDS011;16331;52.528;13.342;2023-07-29T08:42:14;4.70;;;2.58;;
29330;SDS011;16331;52.528;13.342;2023-07-29T08:44:44;6.22;;;2.85;;
29330;SDS011;16331;52.528;13.342;2023-07-29T08:47:14;2.90;;;2.42;;
29330;SDS011;16331;52.528;13.342;2023-07-29T08:49:48;5.82;;;2.60;;
29330;SDS011;16331;52.528;13.342;2023-07-29T08:52:17;3.97;;;2.60;;
29330;SDS011;16331;52.528;13.342;2023-07-29T08:54:58;3.83;;;2.58;;
29330;SDS011;16331;52.528;13.342;2023-07-29T08:57:24;3.35;;;2.45;;
29330;SDS011;16331;52.528;13.342;2023-07-29T08:59:54;3.42;;;2.50;;
29330;SDS011;16331;52.528;13.342;2023-07-29T09:02:26;3.50;;;2.42;;
29330;SDS011;16331;52.528;13.342;2023-07-29T09:04:55;5.22;;;2.35;;
29330;SDS011;16331;52.528;13.342;2023-07-29T09:07:27;6.53;;;2.60;;
29330;SDS011;16331;52.528;13.342;2023-07-29T09:10:10;3.10;;;2.33;;
29330;SDS011;16331;52.528;13.342;2023-07-29T09:12:41;2.90;;;2.08;;
29330;SDS011;16331;52.528;13.342;2023-07-29T09:15:07;7.47;;;2.40;;
29330;SDS011;16331;52.528;13.342;2023-07-29T09:17:34;3.13;;;2.38;;
29330;SDS011;16331;52.528;13.342;2023-07-29T09:20:01;6.40;;;2.78;;
29330;SDS011;16331;52.528;13.342;2023-07-29T09:22:30;2.42;;;2.15;;
29330;SDS011;16331;52.528;13.342;2023-07-29T09:24:57;2.67;;;1.92;;
29330;SDS011;16331;52.528;13.342;2023-07-29T09:27:27;4.07;;;2.25;;
29330;SDS011;16331;52.528;13.342;2023-07-29T09:30:01;3.50;;;1.95;;
29330;SDS011;16331;52.528;13.342;2023-07-29T09:32:32;3.03;;;2.50;;
29330;SDS011;16331;52.528;13.342;2023-07-29T09:35:13;4.18;;;2.00;;
29330;SDS011;16331;52.528;13.342;2023-07-29T09:37:40;2.92;;;1.90;;
29330;SDS011;16331;52.528;13.342;2023-07-29T09:40:13;3.90;;;1.92;;
29330;SDS011;16331;52.528;13.342;2023-07-29T09:42:46;6.93;;;2.58;;
29330;SDS011;16331;52.528;13.342;2023-07-29T09:45:29;4.80;;;2.00;;
29330;SDS011;16331;52.528;13.342;2023-07-29T09:47:59;2.65;;;2.10;;
29330;SDS011;16331;52.528;13.342;2023-07-29T09:50:27;8.98;;;3.13;;
29330;SDS011;16331;52.528;13.342;2023-07-29T09:52:55;2.67;;;1.95;;
29330;SDS011;16331;52.528;13.342;2023-07-29T09:55:25;2.88;;;1.90;;
29330;SDS011;16331;52.528;13.342;2023-07-29T09:57:58;2.53;;;1.92;;
29330;SDS011;16331;52.528;13.342;2023-07-29T10:00:36;2.88;;;2.17;;
29330;SDS011;16331;52.528;13.342;2023-07-29T10:03:06;2.47;;;2.00;;
29330;SDS011;16331;52.528;13.342;2023-07-29T10:05:38;2.92;;;2.00;;
29330;SDS011;16331;52.528;13.342;2023-07-29T10:08:15;3.03;;;1.85;;
29330;SDS011;16331;52.528;13.342;2023-07-29T10:10:44;2.17;;;1.65;;
29330;SDS011;16331;52.528;13.342;2023-07-29T10:13:16;2.80;;;1.85;;
29330;SDS011;16331;52.528;13.342;2023-07-29T10:15:51;4.63;;;2.03;;
29330;SDS011;16331;52.528;13.342;2023-07-29T10:18:21;4.30;;;2.22;;
29330;SDS011;16331;52.528;13.342;2023-07-29T10:20:50;2.08;;;1.73;;
29330;SDS011;16331;52.528;13.342;2023-07-29T10:23:21;1.98;;;1.58;;
29330;SDS011;16331;52.528;13.342;2023-07-29T10:26:02;2.40;;;1.48;;
29330;SDS011;16331;52.528;13.342;2023-07-29T10:28:39;1.73;;;1.60;;
29330;SDS011;16331;52.528;13.342;2023-07-29T10:31:11;2.15;;;1.90;;
29330;SDS011;16331;52.528;13.342;2023-07-29T10:33:38;2.58;;;1.95;;
29330;SDS011;16331;52.528;13.342;2023-07-29T10:36:05;2.65;;;1.85;;
29330;SDS011;16331;52.528;13.342;2023-07-29T10:38:33;1.92;;;1.52;;
29330;SDS011;16331;52.528;13.342;2023-07-29T10:41:06;2.08;;;1.75;;
29330;SDS011;16331;52.528;13.342;2023-07-29T10:43:36;2.45;;;1.48;;
29330;SDS011;16331;52.528;13.342;2023-07-29T10:46:16;5.78;;;1.70;;
29330;SDS011;16331;52.528;13.342;2023-07-29T10:51:24;2.10;;;1.60;;
29330;SDS011;16331;52.528;13.342;2023-07-29T10:54:09;1.75;;;1.40;;
29330;SDS011;16331;52.528;13.342;2023-07-29T10:56:36;4.43;;;1.67;;
29330;SDS011;16331;52.528;13.342;2023-07-29T11:01:42;3.45;;;1.50;;
29330;SDS011;16331;52.528;13.342;2023-07-29T11:07:27;2.28;;;1.60;;
29330;SDS011;16331;52.528;13.342;2023-07-29T11:10:03;2.53;;;1.40;;
29330;SDS011;16331;52.528;13.342;2023-07-29T11:12:48;6.38;;;2.03;;
29330;SDS011;16331;52.528;13.342;2023-07-29T11:17:51;12.65;;;1.80;;
29330;SDS011;16331;52.528;13.342;2023-07-29T11:20:33;17.67;;;1.90;;
29330;SDS011;16331;52.528;13.342;2023-07-29T11:23:00;1.80;;;0.50;;
29330;SDS011;16331;52.528;13.342;2023-07-29T11:25:28;1.38;;;0.50;;
29330;SDS011;16331;52.528;13.342;2023-07-29T11:27:56;1.88;;;0.80;;
29330;SDS011;16331;52.528;13.342;2023-07-29T11:30:24;4.00;;;1.45;;
29330;SDS011;16331;52.528;13.342;2023-07-29T11:32:53;4.35;;;1.10;;
29330;SDS011;16331;52.528;13.342;2023-07-29T11:35:20;2.13;;;0.98;;
29330;SDS011;16331;52.528;13.342;2023-07-29T11:37:48;1.55;;;1.00;;
29330;SDS011;16331;52.528;13.342;2023-07-29T11:40:16;1.58;;;0.80;;
29330;SDS011;16331;52.528;13.342;2023-07-29T11:42:44;4.10;;;1.00;;
29330;SDS011;16331;52.528;13.342;2023-07-29T11:45:12;2.17;;;0.77;;
29330;SDS011;16331;52.528;13.342;2023-07-29T11:47:39;6.50;;;0.70;;
29330;SDS011;16331;52.528;13.342;2023-07-29T11:50:10;2.92;;;1.58;;
29330;SDS011;16331;52.528;13.342;2023-07-29T11:52:43;3.50;;;1.02;;
29330;SDS011;16331;52.528;13.342;2023-07-29T11:55:14;1.70;;;0.98;;
29330;SDS011;16331;52.528;13.342;2023-07-29T11:57:41;1.88;;;1.10;;
29330;SDS011;16331;52.528;13.342;2023-07-29T12:00:08;3.40;;;1.80;;
29330;SDS011;16331;52.528;13.342;2023-07-29T12:02:37;3.92;;;1.70;;
29330;SDS011;16331;52.528;13.342;2023-07-29T12:05:05;5.45;;;1.77;;
29330;SDS011;16331;52.528;13.342;2023-07-29T12:07:35;3.67;;;1.92;;
29330;SDS011;16331;52.528;13.342;2023-07-29T12:10:03;7.15;;;2.63;;
29330;SDS011;16331;52.528;13.342;2023-07-29T12:12:30;3.55;;;1.92;;
29330;SDS011;16331;52.528;13.342;2023-07-29T12:14:59;6.50;;;3.70;;
29330;SDS011;16331;52.528;13.342;2023-07-29T12:17:25;5.47;;;2.42;;
29330;SDS011;16331;52.528;13.342;2023-07-29T12:19:54;2.47;;;1.70;;
29330;SDS011;16331;52.528;13.342;2023-07-29T12:22:21;2.50;;;1.48;;
29330;SDS011;16331;52.528;13.342;2023-07-29T12:24:50;3.70;;;1.65;;
29330;SDS011;16331;52.528;13.342;2023-07-29T12:27:18;3.53;;;1.70;;
29330;SDS011;16331;52.528;13.342;2023-07-29T12:29:46;6.78;;;2.75;;
29330;SDS011;16331;52.528;13.342;2023-07-29T12:32:13;4.72;;;1.67;;
29330;SDS011;16331;52.528;13.342;2023-07-29T12:34:40;3.42;;;1.48;;
29330;SDS011;16331;52.528;13.342;2023-07-29T12:37:09;5.75;;;1.60;;
29330;SDS011;16331;52.528;13.342;2023-07-29T12:39:38;3.45;;;1.30;;
29330;SDS011;16331;52.528;13.342;2023-07-29T12:42:08;1.75;;;1.33;;
29330;SDS011;16331;52.528;13.342;2023-07-29T12:44:36;3.70;;;1.88;;
29330;SDS011;16331;52.528;13.342;2023-07-29T12:47:04;3.47;;;1.80;;
29330;SDS011;16331;52.528;13.342;2023-07-29T12:49:36;7.65;;;2.42;;
29330;SDS011;16331;52.528;13.342;2023-07-29T12:52:02;3.35;;;2.00;;
29330;SDS011;16331;52.528;13.342;2023-07-29T12:54:32;4.22;;;2.08;;
29330;SDS011;16331;52.528;13.342;2023-07-29T12:56:59;2.58;;;2.10;;
29330;SDS011;16331;52.528;13.342;2023-07-29T12:59:25;3.72;;;2.22;;
29330;SDS011;16331;52.528;13.342;2023-07-29T13:01:52;2.63;;;2.00;;
29330;SDS011;16331;52.528;13.342;2023-07-29T13:04:19;3.88;;;1.80;;
29330;SDS011;16331;52.528;13.342;2023-07-29T13:06:46;5.80;;;2.28;;
29330;SDS011;16331;52.528;13.342;2023-07-29T13:09:18;2.75;;;1.52;;
29330;SDS011;16331;52.528;13.342;2023-07-29T13:11:46;3.90;;;1.80;;
29330;SDS011;16331;52.528;13.342;2023-07-29T13:14:12;4.53;;;2.05;;
29330;SDS011;16331;52.528;13.342;2023-07-29T13:16:38;2.58;;;1.95;;
29330;SDS011;16331;52.528;13.342;2023-07-29T13:19:05;3.50;;;1.80;;
29330;SDS011;16331;52.528;13.342;2023-07-29T13:21:34;2.20;;;1.58;;
29330;SDS011;16331;52.528;13.342;2023-07-29T13:24:01;3.63;;;1.60;;
29330;SDS011;16331;52.528;13.342;2023-07-29T13:26:29;1.90;;;1.20;;
29330;SDS011;16331;52.528;13.342;2023-07-29T13:28:57;3.13;;;1.42;;
29330;SDS011;16331;52.528;13.342;2023-07-29T13:31:26;3.05;;;1.50;;
29330;SDS011;16331;52.528;13.342;2023-07-29T13:33:53;3.28;;;1.50;;
29330;SDS011;16331;52.528;13.342;2023-07-29T13:36:19;1.77;;;1.15;;
29330;SDS011;16331;52.528;13.342;2023-07-29T13:38:47;2.60;;;2.00;;
29330;SDS011;16331;52.528;13.342;2023-07-29T13:41:16;0.93;;;0.90;;
29330;SDS011;16331;52.528;13.342;2023-07-29T13:43:44;4.68;;;1.15;;
29330;SDS011;16331;52.528;13.342;2023-07-29T13:46:10;1.60;;;1.13;;
29330;SDS011;16331;52.528;13.342;2023-07-29T13:48:36;2.65;;;1.52;;
29330;SDS011;16331;52.528;13.342;2023-07-29T13:51:02;2.38;;;1.73;;
29330;SDS011;16331;52.528;13.342;2023-07-29T13:53:30;1.63;;;1.13;;
29330;SDS011;16331;52.528;13.342;2023-07-29T13:55:56;1.58;;;1.00;;
29330;SDS011;16331;52.528;13.342;2023-07-29T13:58:22;2.95;;;1.55;;
29330;SDS011;16331;52.528;13.342;2023-07-29T14:00:48;2.45;;;1.02;;
29330;SDS011;16331;52.528;13.342;2023-07-29T14:03:16;2.28;;;1.00;;
29330;SDS011;16331;52.528;13.342;2023-07-29T14:05:42;1.73;;;0.90;;
29330;SDS011;16331;52.528;13.342;2023-07-29T14:08:09;2.83;;;1.38;;
29330;SDS011;16331;52.528;13.342;2023-07-29T14:10:37;1.30;;;1.10;;
29330;SDS011;16331;52.528;13.342;2023-07-29T14:13:03;1.80;;;0.90;;
29330;SDS011;16331;52.528;13.342;2023-07-29T14:15:29;2.30;;;0.90;;
29330;SDS011;16331;52.528;13.342;2023-07-29T14:17:58;2.05;;;0.98;;
29330;SDS011;16331;52.528;13.342;2023-07-29T14:20:27;2.88;;;1.27;;
29330;SDS011;16331;52.528;13.342;2023-07-29T14:22:53;1.70;;;1.42;;
29330;SDS011;16331;52.528;13.342;2023-07-29T14:25:20;2.55;;;1.50;;
29330;SDS011;16331;52.528;13.342;2023-07-29T14:27:46;1.40;;;1.10;;
29330;SDS011;16331;52.528;13.342;2023-07-29T14:30:12;1.80;;;1.27;;
29330;SDS011;16331;52.528;13.342;2023-07-29T14:32:39;2.45;;;0.90;;
29330;SDS011;16331;52.528;13.342;2023-07-29T14:35:05;1.95;;;0.88;;
29330;SDS011;16331;52.528;13.342;2023-07-29T14:37:32;3.10;;;0.88;;
29330;SDS011;16331;52.528;13.342;2023-07-29T14:39:59;3.33;;;0.90;;
29330;SDS011;16331;52.528;13.342;2023-07-29T14:42:26;2.60;;;0.77;;
29330;SDS011;16331;52.528;13.342;2023-07-29T14:44:53;2.25;;;0.93;;
29330;SDS011;16331;52.528;13.342;2023-07-29T14:47:19;0.77;;;0.50;;
29330;SDS011;16331;52.528;13.342;2023-07-29T14:49:45;0.85;;;0.75;;
29330;SDS011;16331;52.528;13.342;2023-07-29T14:52:11;1.15;;;1.05;;
29330;SDS011;16331;52.528;13.342;2023-07-29T14:54:37;1.48;;;1.00;;
29330;SDS011;16331;52.528;13.342;2023-07-29T14:57:04;2.72;;;1.10;;
29330;SDS011;16331;52.528;13.342;2023-07-29T14:59:31;2.13;;;1.00;;
29330;SDS011;16331;52.528;13.342;2023-07-29T15:01:58;1.52;;;1.30;;
29330;SDS011;16331;52.528;13.342;2023-07-29T15:04:24;2.30;;;1.33;;
29330;SDS011;16331;52.528;13.342;2023-07-29T15:06:50;1.67;;;1.33;;
29330;SDS011;16331;52.528;13.342;2023-07-29T15:09:17;2.97;;;1.52;;
29330;SDS011;16331;52.528;13.342;2023-07-29T15:11:43;1.85;;;1.30;;
29330;SDS011;16331;52.528;13.342;2023-07-29T15:14:09;2.65;;;1.40;;
29330;SDS011;16331;52.528;13.342;2023-07-29T15:16:35;3.67;;;1.55;;
29330;SDS011;16331;52.528;13.342;2023-07-29T15:19:03;2.25;;;1.40;;
29330;SDS011;16331;52.528;13.342;2023-07-29T15:21:30;1.35;;;1.10;;
29330;SDS011;16331;52.528;13.342;2023-07-29T15:24:00;2.15;;;1.45;;
29330;SDS011;16331;52.528;13.342;2023-07-29T15:26:27;1.70;;;1.40;;
29330;SDS011;16331;52.528;13.342;2023-07-29T15:28:53;2.75;;;1.35;;
29330;SDS011;16331;52.528;13.342;2023-07-29T15:31:20;2.45;;;1.40;;